• Join FlightAware (Why Join?)
  • Login
  • US Flag 
01:13AM EDT


 

Airport Tracker/Info


-or-


 

Live Flight TrackerFlight Track Log ✈ GLA49W ✈ 03-May-2012 ✈ KISN - KDEN

Flight Track Log - Related Links

Times and Time Zones

All times are in EDT time to prevent confusion due to time zone crossing. See the GLA49W flight status page for this flight to view local times or setup timezone preferences in your user account.

Time Position Orientation Groundspeed Altitude Reporting Facility
EDT Latitude Longitude Course Direction KTS MPH feet Rate Location/Type
04:43PM 48.0923 -103.5837 347° North  Level FlightAware Approximate
04:44PM 48.0177 -103.5675 350° North  Level FlightAware Approximate
04:45PM 47.9431 -103.5514 350° North  Level FlightAware Approximate
04:46PM 47.9053 -103.4581 339° North  Level FlightAware Approximate
04:47PM 47.8377 -103.4084 338° Northwest  Level FlightAware Approximate
04:48PM 47.7625 -103.3999 341° North  Level FlightAware Approximate
04:49PM 48.1625 -103.6072 160° South 155 178 2,900  Level Salt Lake Center
04:50PM 48.1069 -103.5775 169° South 196 226 4,500 1,620 Climbing Salt Lake Center
04:51PM 48.0550 -103.5628 168° South 192 221 6,300 1,800 Climbing Salt Lake Center
04:52PM 48.0022 -103.5467 166° South 192 221 8,200 1,740 Climbing Salt Lake Center
04:53PM 47.9522 -103.5275 180° South 188 216 9,900 1,560 Climbing Salt Lake Center
04:54PM 47.8981 -103.5275 182° South 194 223 11,400 1,620 Climbing Salt Lake Center
04:55PM 47.8431 -103.5306 181° South 197 227 13,300 1,800 Climbing Salt Lake Center
04:56PM 47.7903 -103.5314 179° South 194 223 15,200 1,260 Climbing Salt Lake Center
04:57PM 47.7386 -103.5306 183° South 189 217 16,000 780 Climbing Salt Lake Center
04:58PM 47.6797 -103.5358 180° South 202 232 16,900 1,020 Climbing Salt Lake Center
04:59PM 47.6078 -103.5367 181° South 210 242 18,100 960 Climbing Salt Lake Center
05:00PM 47.5467 -103.5383 180° South 214 246 19,000 840 Climbing Salt Lake Center
05:01PM 47.4842 -103.5378 179° South 219 252 19,900 780 Climbing Salt Lake Center
05:02PM 47.4222 -103.5358 179° South 220 253 20,700 780 Climbing Salt Lake Center
05:03PM 47.3608 -103.5350 178° South 221 254 21,500 660 Climbing Salt Lake Center
05:04PM 47.2997 -103.5314 179° South 221 254 22,100 600 Climbing Salt Lake Center
05:05PM 47.2378 -103.5297 178° South 221 254 22,800 600 Climbing Salt Lake Center
05:06PM 47.1769 -103.5261 176° South 220 253 23,400 480 Climbing Salt Lake Center
05:07PM 47.1167 -103.5197 176° South 219 252 23,900 540 Climbing Salt Lake Center
05:08PM 47.0444 -103.5114 176° South 218 251 24,600 480 Climbing Salt Lake Center
05:09PM 46.9842 -103.5053 178° South 217 250 25,000 240 Climbing Salt Lake Center
05:10PM 46.9203 -103.5019 179° South 222 255 25,100  Climbing Salt Lake Center
05:11PM 46.8511 -103.4994 179° South 234 269 25,100 -60 Level Salt Lake Center
05:12PM 46.7792 -103.4983 179° South 247 284 25,000 -60 Descending Salt Lake Center
05:13PM 46.7061 -103.4958 180° South 256 295 25,000  Level Salt Lake Center
05:14PM 46.6314 -103.4956 179° South 262 302 25,000  Level Salt Lake Center
05:15PM 46.5422 -103.4936 178° South 266 306 25,000  Level Salt Lake Center
05:16PM 46.4675 -103.4903 179° South 267 307 25,000  Level Salt Lake Center
05:17PM 46.3928 -103.4886 179° South 269 310 25,000  Level Salt Lake Center
05:18PM 46.3172 -103.4867 179° South 270 311 25,000  Level Salt Lake Center
05:19PM 46.2422 -103.4844 179° South 270 311 25,000  Level Salt Lake Center
05:20PM 46.1681 -103.4822 179° South 269 310 25,000  Level Salt Lake Center
05:21PM 46.0931 -103.4803 180° South 269 310 25,000  Level Salt Lake Center
05:22PM 46.0044 -103.4794 175° South 268 308 25,000  Level Salt Lake Center
05:23PM 45.9314 -103.4708 180° South 265 305 25,000  Level Salt Lake Center
05:25PM 45.8564 -103.4711 179° South 268 308 25,000  Level Salt Lake Center
05:26PM 45.7833 -103.4697 180° South 266 306 25,000  Level Salt Lake Center
05:27PM 45.7078 -103.4697 180° South 269 310 25,000  Level Salt Lake Center
05:28PM 45.6322 -103.4706 179° South 270 311 25,000  Level Salt Lake Center
05:29PM 45.5572 -103.4678 179° South 270 311 25,000  Level Salt Lake Center
05:30PM 45.4692 -103.4647 179° South 267 307 25,000  Level Salt Lake Center
05:31PM 45.3975 -103.4625 179° South 261 300 25,000  Level Salt Lake Center
05:32PM 45.3225 -103.4608 179° South 262 302 25,000  Level Salt Lake Center
05:33PM 45.2517 -103.4589 178° South 262 302 25,000  Level Salt Lake Center
05:34PM 45.1781 -103.4550 178° South 264 304 25,000  Level Salt Lake Center
05:35PM 45.1006 -103.4517 178° South 263 303 25,000  Level Salt Lake Center
05:36PM 45.0186 -103.4475 179° South 264 304 25,000  Level Salt Lake Center
05:37PM 44.9494 -103.4450 177° South 262 302 25,000  Level Salt Lake Center
05:38PM 44.8669 -103.4397 179° South 263 303 25,000  Level Salt Lake Center
05:39PM 44.8286 -103.4389 177° South 273 314 25,000  Level Denver Center
05:40PM 44.7536 -103.4339 180° South 273 314 25,000  Level Denver Center
05:41PM 44.6828 -103.4347 177° South 273 314 25,000  Level Denver Center
05:42PM 44.6097 -103.4294 180° South 273 314 25,000  Level Denver Center
05:43PM 44.5392 -103.4303 177° South 268 308 25,000  Level Denver Center
05:44PM 44.4661 -103.4253 179° South 268 308 25,000  Level Denver Center
05:45PM 44.3911 -103.4231 179° South 274 315 25,000  Level Denver Center
05:46PM 44.3097 -103.4214 180° South 274 315 25,000  Level Denver Center
05:47PM 44.2350 -103.4222 177° South 274 315 25,000  Level Denver Center
05:48PM 44.1597 -103.4172 178° South 269 310 25,000  Level Denver Center
05:49PM 44.0931 -103.4147 178° South 274 315 25,000  Level Denver Center
05:50PM 44.0097 -103.4103 177° South 274 315 25,000  Level Denver Center
05:51PM 43.9367 -103.4053 176° South 274 315 25,000  Level Denver Center
05:52PM 43.8636 -103.3975 180° South 274 315 25,000  Level Denver Center
05:53PM 43.7989 -103.3978 176° South 269 310 25,000  Level Denver Center
05:54PM 43.7175 -103.3903 179° South 269 310 25,000  Level Denver Center
05:55PM 43.6467 -103.3881 180° South 269 310 25,000  Level Denver Center
05:56PM 43.5739 -103.3889 180° South 269 310 25,000  Level Denver Center
05:57PM 43.5072 -103.3894 182° South 269 310 25,000  Level Denver Center
05:58PM 43.4281 -103.3933 182° South 269 310 25,000  Level Denver Center
05:59PM 43.3553 -103.3969 187° South 269 310 25,000  Level Denver Center
06:00PM 43.2806 -103.4092 184° South 269 310 25,000  Level Denver Center
06:01PM 43.2161 -103.4150 185° South 269 310 25,000  Level Denver Center
06:02PM 43.1331 -103.4247 187° South 268 308 25,000  Level Denver Center
06:03PM 43.0625 -103.4367 184° South 268 308 25,000  Level Denver Center
06:04PM 42.9878 -103.4431 186° South 273 314 25,000  Level Denver Center
06:05PM 42.9233 -103.4519 184° South 268 308 25,000  Level Denver Center
06:06PM 42.8442 -103.4586 185° South 268 308 25,000  Level Denver Center
06:07PM 42.7736 -103.4675 185° South 263 303 25,000  Level Denver Center
06:08PM 42.7031 -103.4767 186° South 263 303 25,000  Level Denver Center
06:09PM 42.6386 -103.4853 182° South 263 303 25,000  Level Denver Center
06:10PM 42.5636 -103.4886 184° South 263 303 25,000  Level Denver Center
06:11PM 42.4847 -103.4953 182° South 263 303 25,000  Level Denver Center
06:12PM 42.4119 -103.4986 177° South 271 312 25,000  Level Denver Center
06:13PM 42.3428 -103.4933 180° South 271 312 25,000  Level Denver Center
06:14PM 42.2678 -103.4942 180° South 271 312 25,000  Level Denver Center
06:15PM 42.1844 -103.4950 177° South 271 312 25,000  Level Denver Center
06:16PM 42.1094 -103.4903 173° South 271 312 25,000  Level Denver Center
06:17PM 42.0425 -103.4792 177° South 276 318 25,000  Level Denver Center
06:18PM 41.9692 -103.4744 182° South 276 318 25,000  Level Denver Center
06:19PM 41.8900 -103.4778 182° South 268 308 25,000  Level Denver Center
06:20PM 41.8111 -103.4817 186° South 273 314 25,000  Level Denver Center
06:21PM 41.7444 -103.4903 185° South 273 314 25,000  Level Denver Center
06:22PM 41.6717 -103.4992 185° South 267 307 25,000 -600 Level Denver Center
06:23PM 41.5867 -103.5086 191° South 272 313 23,800 -1,260 Descending Denver Center
06:24PM 41.5058 -103.5289 191° South 286 329 22,500 -3,900 Descending Denver Center
06:25PM 41.4436 -103.5456 190° South 291 335 16,000 -1,500 Descending Denver Center
06:26PM 41.3586 -103.5658 194° South 291 335 19,600 1,140 Climbing Denver Center
06:27PM 41.2717 -103.5944 189° South 291 335 18,300 -1,080 Descending Denver Center
06:28PM 41.1908 -103.6119 190° South 291 335 17,500 -780 Descending Denver Center
06:29PM 41.1225 -103.6286 182° South 291 335 16,800 -660 Descending Denver Center
06:30PM 41.0392 -103.6322 183° South 291 335 16,200 -420 Descending Denver Center
06:31PM 40.9622 -103.6381 180° South 291 335 16,000 -120 Descending Denver Center
06:32PM 40.8831 -103.6389 180° South 291 335 16,000  Level Denver Center
06:33PM 40.8036 -103.6394 196° South 291 335 16,000  Level Denver Center
06:34PM 40.7314 -103.6672 195° South 280 322 16,000  Level Denver Center
06:35PM 40.6508 -103.6953 198° South 275 316 16,000  Level Denver Center
06:36PM 40.5806 -103.7256 221° Southwest 275 316 16,000 -120 Level Denver Center
06:37PM 40.5258 -103.7878 228° Southwest 263 303 15,800 -660 Descending Denver Center
06:38PM 40.4753 -103.8608 228° Southwest 268 308 14,700 -900 Descending Denver Center
06:39PM 40.4247 -103.9336 229° Southwest 278 320 14,000 -600 Descending Denver Center
06:40PM 40.3764 -104.0064 229° Southwest 278 320 13,500 -540 Descending Denver Center
06:41PM 40.3278 -104.0789 254° West 273 314 13,000 -300 Descending Denver Center
06:42PM 40.3067 -104.1722 255° West 260 299 13,000  Level Denver Center
06:43PM 40.2878 -104.2628 252° West 260 299 13,000  Level Denver Center
06:44PM 40.2664 -104.3478 247° West 260 299 13,000  Level Denver Center
06:45PM 40.2428 -104.4219 247° West 255 293 13,000 -600 Level Denver Center
06:46PM 40.2169 -104.5017 224° Southwest 247 284 11,800 -1,380 Descending Denver Center
06:47PM 40.1700 -104.5603 218° Southwest 240 276 10,300 -1,260 Descending Denver Center
06:48PM 40.1186 -104.6133 218° Southwest 234 269 9,300 -900 Descending Denver Center
06:49PM 40.0500 -104.6833 180° South 228 262 8,200 -900 Descending Denver TRACON
06:50PM 39.9833 -104.6833 180° South 184 212 7,300 -900 Descending Denver TRACON
06:51PM 39.9500 -104.6833 180° South 149 171 6,400 -840 Descending Denver TRACON
06:52PM 39.9167 -104.6833 180° South 139 160 5,700 -720 Descending Denver TRACON